METAR AND TAF INFORMATION
METAR FOR SARC
ADDS - METARS form results

(1718 UTC 20 June 2019)
Data provider http://aviationweather.gov/metar/data/
 
METAR text: SARC 201700Z 09005KT CAVOK 21/07 Q1022
Conditions at: SARC (CORRIENTES AIRPO, AR) observed 1700 UTC 20 June 2019
Temperature: 21.0°C (70°F)
Dewpoint: 7.0°C (45°F) [RH = 40%]
Pressure (altimeter): 30.18 inches Hg (1022.0 mb)
Winds: from the E (90 degrees) at 6 MPH (5 knots; 2.6 m/s)
Visibility: 6 or more miles (10+ km)
Ceiling: ceiling and visibility are OK
Clouds: unknown
Weather: no significant weather observed at this time

 AIRPORT MAP

 RUNWAY INFORMATION
Runway 2 Runway length 6890 ft Runway width 148 ft
Runway elevation 202 ft Runway displaced threshold 0 ft Runway heading 8
Runway 20 Runway length 6890 ft Runway width 148 ft
Runway elevation 199 ft Runway displaced threshold 0 ft Runway heading 188

 AIRPORT FREQUENCIES
Type TWR Name TWR Frequency 118.3 MHZ

 AIRPORT NEAR NAVIGATION AIDS
Type NDB Name Corrientes Frequency 305 KHZ
Type VOR-DME Name Corrientes Frequency 115400 KHZ



Powered by Virtual Airlines Manager [v2.6.2]